Time;durP1;ratioP1;P1;durP2;ratioP2;P2;SDS_P1;SDS_P2;PMS_P1;PMS_P2;Temp;Humidity;BMP_temperature;BMP_pressure;BME280_temperature;BME280_humidity;BME280_pressure;Samples;Min_cycle;Max_cycle;Signal;HPM_P1;HPM_P2
2021/10/18 00:02:00;;;;;;;4.95;3.28;;;10.70;96.40;;;;;;5054553;28;20036;-77
2021/10/18 00:04:26;;;;;;;5.07;3.30;;;10.70;96.20;;;;;;5038075;28;20028;-77
2021/10/18 00:06:52;;;;;;;3.88;3.47;;;10.70;96.10;;;;;;5056063;28;20074;-76
2021/10/18 00:09:19;;;;;;;4.22;3.17;;;10.70;96.10;;;;;;5055897;28;20067;-75
2021/10/18 00:11:46;;;;;;;5.78;3.35;;;10.70;96.00;;;;;;5055798;28;20032;-77
2021/10/18 00:14:11;;;;;;;3.70;3.35;;;10.70;95.80;;;;;;5037917;28;20516;-77
2021/10/18 00:16:38;;;;;;;5.88;3.33;;;10.70;95.70;;;;;;5038063;28;20025;-77
2021/10/18 00:19:05;;;;;;;4.72;2.78;;;10.70;95.70;;;;;;5055615;28;20402;-76
2021/10/18 00:21:31;;;;;;;4.35;2.90;;;10.70;95.70;;;;;;5055744;28;20021;-77
2021/10/18 00:23:57;;;;;;;4.05;3.08;;;10.70;95.50;;;;;;5037612;28;20535;-77
2021/10/18 00:26:22;;;;;;;4.90;3.30;;;10.80;95.50;;;;;;5055579;28;20095;-77
2021/10/18 00:28:48;;;;;;;8.00;3.42;;;10.80;95.30;;;;;;5054155;28;20029;-76
2021/10/18 00:31:14;;;;;;;4.13;3.20;;;10.80;95.40;;;;;;5055471;28;20074;-77
2021/10/18 00:33:39;;;;;;;3.63;2.83;;;10.80;95.30;;;;;;5055537;28;20017;-77
2021/10/18 00:36:05;;;;;;;5.55;3.30;;;10.70;95.40;;;;;;5055372;28;20492;-77
2021/10/18 00:38:31;;;;;;;3.78;2.88;;;10.80;95.70;;;;;;5037391;28;20136;-77
2021/10/18 00:40:57;;;;;;;5.63;3.08;;;10.80;95.20;;;;;;5055267;28;20387;-77
2021/10/18 00:43:23;;;;;;;4.65;3.03;;;10.80;95.10;;;;;;5054213;28;20434;-77
2021/10/18 00:45:48;;;;;;;4.90;3.15;;;10.80;95.00;;;;;;5037245;28;20021;-77
2021/10/18 00:48:14;;;;;;;3.63;2.92;;;10.80;95.10;;;;;;5037235;28;20025;-77
2021/10/18 00:50:41;;;;;;;5.15;3.53;;;10.80;95.10;;;;;;5037125;28;20513;-77
2021/10/18 00:53:07;;;;;;;6.22;2.90;;;10.80;94.90;;;;;;5037040;28;20073;-77
2021/10/18 00:55:33;;;;;;;3.30;3.00;;;10.70;94.90;;;;;;5037115;28;20025;-77
2021/10/18 00:57:59;;;;;;;3.83;3.13;;;10.70;94.80;;;;;;5054905;28;20029;-76
2021/10/18 01:00:24;;;;;;;8.68;2.83;;;10.70;94.90;;;;;;5055000;28;20029;-77
2021/10/18 01:02:50;;;;;;;3.47;2.95;;;10.60;95.10;;;;;;5054636;28;20033;-77
2021/10/18 01:05:16;;;;;;;3.60;2.90;;;10.60;95.10;;;;;;5054748;28;20024;-77
2021/10/18 01:07:43;;;;;;;3.33;2.88;;;10.50;95.20;;;;;;5054770;28;20475;-77
2021/10/18 01:10:09;;;;;;;4.68;2.90;;;10.50;95.20;;;;;;5036633;28;20033;-78
2021/10/18 01:12:35;;;;;;;3.38;3.05;;;10.50;95.20;;;;;;5036813;28;20025;-78
2021/10/18 01:15:01;;;;;;;4.43;2.92;;;10.50;95.20;;;;;;5053393;28;20021;-78
2021/10/18 01:17:26;;;;;;;4.32;2.67;;;10.50;95.10;;;;;;5036584;28;20029;-77
2021/10/18 01:19:52;;;;;;;2.67;2.47;;;10.50;94.80;;;;;;5054364;28;20021;-77
2021/10/18 01:22:18;;;;;;;3.03;2.72;;;10.50;94.90;;;;;;5054383;28;20047;-77
2021/10/18 01:24:43;;;;;;;4.60;2.53;;;10.40;95.00;;;;;;5054403;28;20107;-77
2021/10/18 01:27:09;;;;;;;5.97;2.90;;;10.40;95.20;;;;;;5054544;28;20024;-77
2021/10/18 01:29:37;;;;;;;3.10;2.80;;;10.30;95.30;;;;;;5036487;28;20029;-78
2021/10/18 01:32:06;;;;;;;2.97;2.67;;;10.40;95.30;;;;;;5054257;28;20096;-78
2021/10/18 01:34:31;;;;;;;6.47;3.10;;;10.30;95.20;;;;;;5036208;28;20055;-78
2021/10/18 01:37:00;;;;;;;3.75;3.10;;;10.30;94.90;;;;;;5054166;28;20025;-77
2021/10/18 01:39:26;;;;;;;3.97;2.97;;;10.40;95.10;;;;;;5052761;28;20454;-77
2021/10/18 01:41:52;;;;;;;4.22;3.08;;;10.50;95.00;;;;;;5036348;28;20357;-77
2021/10/18 01:44:18;;;;;;;3.30;2.53;;;10.50;94.90;;;;;;5053982;28;20045;-78
2021/10/18 01:46:44;;;;;;;3.97;3.28;;;10.50;94.70;;;;;;5036271;28;20017;-78
2021/10/18 01:49:10;;;;;;;3.13;2.83;;;10.60;94.60;;;;;;5053888;28;20087;-78
2021/10/18 01:51:36;;;;;;;5.70;3.10;;;10.70;94.50;;;;;;5053879;28;20024;-78
2021/10/18 01:54:02;;;;;;;4.45;2.83;;;10.70;94.30;;;;;;5053906;28;20069;-78
2021/10/18 01:56:29;;;;;;;4.60;3.30;;;10.80;94.20;;;;;;5053853;28;20024;-77
2021/10/18 01:58:55;;;;;;;16.98;3.28;;;10.80;94.10;;;;;;5053754;28;20040;-77
2021/10/18 02:01:21;;;;;;;5.78;3.03;;;10.90;94.00;;;;;;5053529;28;20104;-77
2021/10/18 02:03:47;;;;;;;4.70;2.75;;;10.80;93.90;;;;;;5053652;28;20029;-78
2021/10/18 02:06:12;;;;;;;3.97;3.25;;;10.90;94.10;;;;;;5053639;28;20027;-77
2021/10/18 02:08:38;;;;;;;4.15;2.92;;;10.90;93.70;;;;;;5053691;28;20108;-77
2021/10/18 02:11:06;;;;;;;3.90;3.03;;;10.90;93.80;;;;;;5035718;28;20113;-77
2021/10/18 02:13:32;;;;;;;3.17;2.85;;;10.90;93.70;;;;;;5053587;28;20025;-77
2021/10/18 02:15:57;;;;;;;3.05;2.75;;;10.90;93.60;;;;;;5053443;28;20043;-77
2021/10/18 02:18:23;;;;;;;4.35;3.47;;;10.90;93.60;;;;;;5053157;28;20029;-77
2021/10/18 02:20:49;;;;;;;4.20;3.05;;;10.90;93.50;;;;;;5053409;28;20108;-77
2021/10/18 02:23:15;;;;;;;4.13;3.30;;;10.90;93.50;;;;;;5053107;28;20025;-77
2021/10/18 02:25:40;;;;;;;8.63;3.05;;;10.90;93.50;;;;;;5053359;28;20021;-77
2021/10/18 02:28:06;;;;;;;4.50;2.83;;;10.90;93.40;;;;;;5035471;28;20387;-77
2021/10/18 02:30:32;;;;;;;4.40;2.95;;;10.90;93.40;;;;;;5053297;28;20068;-78
2021/10/18 02:32:57;;;;;;;3.92;3.08;;;10.90;93.50;;;;;;5053194;28;20100;-78
2021/10/18 02:35:23;;;;;;;3.70;3.28;;;10.90;93.30;;;;;;5035298;28;20078;-76
2021/10/18 02:37:49;;;;;;;3.08;2.85;;;10.90;93.40;;;;;;5035124;28;20025;-77
2021/10/18 02:40:15;;;;;;;3.83;3.00;;;10.90;93.30;;;;;;5052850;28;20106;-78
2021/10/18 02:42:41;;;;;;;3.05;2.75;;;10.90;93.30;;;;;;5053060;28;20110;-77
2021/10/18 02:45:08;;;;;;;3.55;3.03;;;10.90;93.30;;;;;;5035326;28;20017;-78
2021/10/18 02:47:35;;;;;;;5.43;3.17;;;10.90;93.00;;;;;;5053078;28;20476;-78
2021/10/18 02:50:00;;;;;;;3.53;2.75;;;11.00;92.90;;;;;;5035194;28;20021;-77
2021/10/18 02:52:26;;;;;;;3.47;2.67;;;10.90;93.00;;;;;;5052936;28;20047;-77
2021/10/18 02:54:54;;;;;;;3.45;2.75;;;10.90;93.00;;;;;;5051577;28;20434;-78
2021/10/18 02:57:20;;;;;;;3.85;3.10;;;11.00;93.00;;;;;;5053090;28;20017;-78
2021/10/18 02:59:45;;;;;;;3.10;2.80;;;10.90;93.10;;;;;;5034786;28;20098;-77
2021/10/18 03:02:11;;;;;;;4.82;3.20;;;11.00;92.70;;;;;;5051467;28;20025;-78
2021/10/18 03:04:37;;;;;;;3.22;2.92;;;11.00;92.80;;;;;;5035094;28;20541;-77
2021/10/18 03:07:02;;;;;;;4.68;3.00;;;11.00;92.70;;;;;;5052488;28;20029;-77
2021/10/18 03:09:28;;;;;;;4.72;2.65;;;11.00;92.60;;;;;;5052806;28;20500;-78
2021/10/18 03:11:54;;;;;;;4.03;3.05;;;11.00;92.40;;;;;;5052716;28;20155;-78
2021/10/18 03:14:19;;;;;;;3.83;3.22;;;11.00;92.50;;;;;;5052833;28;20088;-78
2021/10/18 03:16:45;;;;;;;5.10;2.75;;;11.00;92.40;;;;;;5052666;28;20040;-78
2021/10/18 03:19:11;;;;;;;3.78;2.90;;;11.00;92.70;;;;;;5052668;28;20029;-78
2021/10/18 03:21:36;;;;;;;3.38;2.70;;;10.90;92.80;;;;;;5034674;28;20021;-78
2021/10/18 03:24:02;;;;;;;5.95;3.10;;;10.90;92.70;;;;;;5052686;28;20041;-78
2021/10/18 03:26:28;;;;;;;4.25;3.10;;;10.90;92.70;;;;;;5052692;28;20028;-78
2021/10/18 03:28:53;;;;;;;3.25;2.90;;;10.90;92.70;;;;;;5052570;28;20375;-78
2021/10/18 03:31:19;;;;;;;5.93;3.42;;;10.90;93.20;;;;;;5034757;28;20029;-78
2021/10/18 03:33:45;;;;;;;5.05;3.22;;;10.80;93.20;;;;;;5052631;28;20379;-78
2021/10/18 03:36:10;;;;;;;3.17;2.88;;;10.80;93.20;;;;;;5052486;28;20071;-78
2021/10/18 03:38:36;;;;;;;4.03;3.33;;;10.80;93.30;;;;;;5052446;28;20013;-78
2021/10/18 03:41:03;;;;;;;6.47;3.30;;;10.80;93.20;;;;;;5052490;28;20479;-78
2021/10/18 03:43:29;;;;;;;4.20;3.03;;;10.80;93.10;;;;;;5052443;28;20025;-77
2021/10/18 03:45:54;;;;;;;4.10;3.22;;;10.90;92.90;;;;;;5052410;28;20078;-78
2021/10/18 03:48:20;;;;;;;4.20;3.15;;;10.90;93.00;;;;;;5052380;28;20033;-78
2021/10/18 03:50:46;;;;;;;4.78;3.05;;;10.90;93.00;;;;;;5052285;28;20021;-77
2021/10/18 03:53:12;;;;;;;4.18;3.00;;;10.90;92.80;;;;;;5034354;28;20167;-78
2021/10/18 03:55:37;;;;;;;3.80;3.17;;;10.80;92.90;;;;;;5034516;28;20025;-78
2021/10/18 03:58:03;;;;;;;4.88;3.83;;;10.80;92.90;;;;;;5034353;28;20028;-78
2021/10/18 04:00:29;;;;;;;4.18;2.88;;;10.80;92.80;;;;;;5034449;28;20029;-78
2021/10/18 04:02:55;;;;;;;4.03;3.05;;;10.70;92.70;;;;;;5051931;28;20541;-78
2021/10/18 04:05:21;;;;;;;3.08;2.60;;;10.80;92.90;;;;;;5052389;28;20029;-77
2021/10/18 04:07:48;;;;;;;4.22;3.00;;;10.80;92.90;;;;;;5052199;28;20051;-78
2021/10/18 04:10:17;;;;;;;3.78;2.85;;;10.70;93.00;;;;;;5052176;28;20017;-78
2021/10/18 04:12:43;;;;;;;4.78;3.20;;;10.70;92.80;;;;;;5052213;28;20021;-77
2021/10/18 04:15:09;;;;;;;3.28;2.97;;;10.70;92.80;;;;;;5034404;28;20108;-77
2021/10/18 04:17:35;;;;;;;3.22;2.92;;;10.70;92.70;;;;;;5052147;28;20040;-78
2021/10/18 04:20:01;;;;;;;3.38;2.85;;;10.70;92.50;;;;;;5055200;28;20025;-77
2021/10/18 04:22:26;;;;;;;4.75;2.90;;;10.70;92.70;;;;;;5055693;28;20502;-77
2021/10/18 04:24:52;;;;;;;5.53;2.92;;;10.70;92.60;;;;;;5055690;28;20389;-76
2021/10/18 04:27:18;;;;;;;3.10;2.80;;;10.60;92.60;;;;;;5055734;28;20041;-77
2021/10/18 04:29:43;;;;;;;4.53;2.80;;;10.60;92.90;;;;;;5055501;28;20494;-78
2021/10/18 04:32:09;;;;;;;4.35;3.08;;;10.60;92.80;;;;;;5055569;28;20021;-78
2021/10/18 04:34:37;;;;;;;4.25;3.42;;;10.60;92.70;;;;;;5055506;28;20426;-78
2021/10/18 04:37:03;;;;;;;3.20;2.85;;;10.60;92.70;;;;;;5055731;28;20021;-79
2021/10/18 04:39:29;;;;;;;3.63;2.75;;;10.60;92.60;;;;;;5055130;28;20029;-77
2021/10/18 04:41:56;;;;;;;3.33;2.83;;;10.60;92.80;;;;;;5037406;28;20021;-77
2021/10/18 04:44:22;;;;;;;3.72;2.92;;;10.50;92.90;;;;;;5055243;28;20466;-78
2021/10/18 04:46:47;;;;;;;6.65;3.25;;;10.40;92.90;;;;;;5055294;28;20013;-78
2021/10/18 04:49:13;;;;;;;3.28;2.92;;;10.40;93.30;;;;;;5055057;28;20025;-76
2021/10/18 04:51:39;;;;;;;3.42;3.13;;;10.40;93.40;;;;;;5055087;28;20025;-77
2021/10/18 04:54:05;;;;;;;3.40;2.80;;;10.50;92.80;;;;;;5037029;28;20025;-77
2021/10/18 04:56:30;;;;;;;4.55;2.97;;;10.60;92.60;;;;;;5055073;28;20017;-77
2021/10/18 04:58:56;;;;;;;3.90;2.70;;;10.70;92.60;;;;;;5054775;28;20083;-78
2021/10/18 05:01:22;;;;;;;5.47;2.70;;;10.70;92.30;;;;;;5054748;28;20108;-77
2021/10/18 05:03:47;;;;;;;5.18;3.15;;;10.70;92.40;;;;;;5037158;28;20040;-78
2021/10/18 05:06:14;;;;;;;3.95;2.85;;;10.70;92.20;;;;;;5054512;28;20043;-83
2021/10/18 05:08:39;;;;;;;4.28;2.90;;;10.70;92.40;;;;;;5055502;28;20510;-79
2021/10/18 05:11:05;;;;;;;7.47;3.00;;;10.70;92.40;;;;;;5055302;28;20025;-81
2021/10/18 05:13:31;;;;;;;2.97;2.67;;;10.70;92.40;;;;;;5059236;28;20079;-80
2021/10/18 05:15:57;;;;;;;10.00;3.17;;;10.70;92.50;;;;;;5054647;28;20031;-78
2021/10/18 05:18:22;;;;;;;3.75;3.00;;;10.60;92.60;;;;;;5054482;28;20063;-81
2021/10/18 05:20:50;;;;;;;4.50;2.75;;;10.60;92.50;;;;;;5054388;28;20040;-78
2021/10/18 05:23:16;;;;;;;4.65;2.58;;;10.60;92.00;;;;;;5054469;28;20024;-78
2021/10/18 05:25:42;;;;;;;2.78;2.47;;;10.60;91.60;;;;;;5054283;28;20120;-78
2021/10/18 05:28:09;;;;;;;3.65;2.78;;;10.60;91.80;;;;;;5054331;28;20021;-79
2021/10/18 05:30:35;;;;;;;2.63;2.40;;;10.60;92.00;;;;;;5036240;28;20017;-77
2021/10/18 05:33:01;;;;;;;5.68;2.60;;;10.60;91.90;;;;;;5054330;28;20029;-78
2021/10/18 05:35:28;;;;;;;4.97;2.45;;;10.70;91.60;;;;;;5036297;28;20024;-78
2021/10/18 05:37:56;;;;;;;2.67;2.47;;;10.70;91.80;;;;;;5036395;28;20479;-78
2021/10/18 05:40:23;;;;;;;6.80;2.58;;;10.70;91.40;;;;;;5054160;28;20036;-78
2021/10/18 05:42:49;;;;;;;3.67;2.58;;;10.70;91.50;;;;;;5036189;28;20040;-78
2021/10/18 05:45:15;;;;;;;4.07;2.58;;;10.70;91.70;;;;;;5053994;28;20534;-78
2021/10/18 05:48:00;;;;;;;2.83;2.03;;;10.70;91.90;;;;;;5036171;28;20442;-77
2021/10/18 05:50:36;;;;;;;4.75;2.50;;;10.70;91.00;;;;;;5054074;28;20104;-78
2021/10/18 05:53:02;;;;;;;3.42;2.53;;;10.70;91.80;;;;;;5053846;28;20017;-78
2021/10/18 05:55:28;;;;;;;5.78;2.92;;;10.70;91.50;;;;;;5036216;28;20021;-84
2021/10/18 05:57:56;;;;;;;3.13;2.65;;;10.70;91.40;;;;;;5035914;28;20024;-81
2021/10/18 06:00:23;;;;;;;3.88;2.38;;;10.80;91.20;;;;;;5054046;28;20112;-82
2021/10/18 06:02:50;;;;;;;5.07;2.40;;;10.90;90.80;;;;;;5053892;28;20091;-83
2021/10/18 06:05:17;;;;;;;3.67;2.60;;;11.00;91.20;;;;;;5053827;28;20113;-84
2021/10/18 06:07:43;;;;;;;4.53;3.40;;;11.10;91.90;;;;;;5053869;28;20074;-81
2021/10/18 06:10:11;;;;;;;4.72;2.78;;;11.20;90.90;;;;;;5036044;28;20028;-84
2021/10/18 06:12:37;;;;;;;3.38;2.78;;;11.30;91.00;;;;;;5054150;28;20021;-88
2021/10/18 06:15:04;;;;;;;7.30;3.05;;;11.40;91.60;;;;;;5054261;28;20017;-83
2021/10/18 06:17:30;;;;;;;3.42;2.60;;;11.30;91.10;;;;;;5053951;28;20132;-83
2021/10/18 06:19:55;;;;;;;5.45;2.65;;;11.40;90.60;;;;;;5053980;28;20495;-83
2021/10/18 06:22:21;;;;;;;4.28;2.67;;;11.30;90.40;;;;;;5054360;28;20023;-83
2021/10/18 06:24:49;;;;;;;4.60;2.40;;;11.40;90.40;;;;;;5036220;28;20033;-83
2021/10/18 06:27:16;;;;;;;8.25;2.65;;;11.40;90.50;;;;;;5054279;28;20480;-83
2021/10/18 06:29:42;;;;;;;6.82;3.63;;;11.50;89.90;;;;;;5036373;28;20033;-83
2021/10/18 06:32:07;;;;;;;3.58;3.08;;;11.60;89.90;;;;;;5054094;28;20028;-84
2021/10/18 06:34:33;;;;;;;3.60;2.88;;;11.60;89.40;;;;;;5035693;28;20059;-83
2021/10/18 06:36:59;;;;;;;6.68;2.78;;;11.70;90.00;;;;;;5035626;28;20361;-83
2021/10/18 06:39:25;;;;;;;6.57;2.72;;;11.70;90.30;;;;;;5053866;28;20105;-82
2021/10/18 06:41:50;;;;;;;4.00;2.88;;;11.80;89.50;;;;;;5035159;28;20067;-83
2021/10/18 06:44:16;;;;;;;6.32;2.88;;;11.90;90.00;;;;;;5053942;28;20032;-83
2021/10/18 06:46:42;;;;;;;7.03;3.30;;;12.00;90.00;;;;;;5054086;28;20025;-83
2021/10/18 06:49:08;;;;;;;5.40;3.00;;;12.10;89.20;;;;;;5053931;28;20029;-84
2021/10/18 06:51:37;;;;;;;7.93;2.83;;;12.10;88.60;;;;;;5053512;28;20029;-84
2021/10/18 06:54:04;;;;;;;4.10;2.80;;;12.20;88.00;;;;;;5053344;28;20465;-82
2021/10/18 06:56:30;;;;;;;3.63;2.53;;;12.30;88.80;;;;;;5053465;28;20116;-83
2021/10/18 06:58:56;;;;;;;8.27;3.60;;;12.40;88.20;;;;;;5054035;28;20069;-86
2021/10/18 07:01:22;;;;;;;3.28;2.65;;;12.60;88.20;;;;;;5054739;28;20531;-85
2021/10/18 07:03:47;;;;;;;3.58;2.88;;;12.80;87.30;;;;;;5036303;28;20037;-84
2021/10/18 07:06:13;;;;;;;4.20;2.72;;;13.00;85.70;;;;;;5036009;28;20066;-83
2021/10/18 07:08:39;;;;;;;6.32;3.03;;;13.20;85.10;;;;;;5053686;28;20063;-84
2021/10/18 07:11:04;;;;;;;3.33;2.42;;;13.40;84.60;;;;;;5053277;28;20445;-86
2021/10/18 07:13:30;;;;;;;2.83;2.63;;;13.60;83.50;;;;;;5053540;28;20036;-87
2021/10/18 07:15:56;;;;;;;4.38;2.78;;;13.80;83.40;;;;;;5053930;28;20471;-84
2021/10/18 07:18:21;;;;;;;5.80;3.08;;;14.00;82.20;;;;;;5053650;28;20116;-83
2021/10/18 07:20:47;;;;;;;6.43;2.90;;;14.20;81.30;;;;;;5054033;28;20387;-84
2021/10/18 07:23:13;;;;;;;2.80;2.40;;;14.40;81.10;;;;;;5035897;28;20532;-84
2021/10/18 07:25:42;;;;;;;4.30;2.55;;;14.50;80.40;;;;;;5055409;28;20383;-82
2021/10/18 07:28:08;;;;;;;5.00;3.00;;;14.60;79.40;;;;;;5039297;28;20407;-82
2021/10/18 07:30:36;;;;;;;3.15;2.65;;;14.60;80.00;;;;;;5055933;28;20406;-84
2021/10/18 07:33:02;;;;;;;4.32;3.17;;;14.70;79.50;;;;;;5054768;28;20114;-81
2021/10/18 07:35:33;;;;;;;3.00;2.80;;;14.80;80.00;;;;;;5052974;28;20057;-84
2021/10/18 07:38:00;;;;;;;4.35;2.83;;;14.80;81.10;;;;;;5053890;28;20031;-84
2021/10/18 07:40:27;;;;;;;5.07;2.80;;;14.80;80.70;;;;;;5052876;28;20017;-83
2021/10/18 07:42:53;;;;;;;4.78;2.92;;;14.90;81.00;;;;;;5051446;28;20037;-86
2021/10/18 07:45:19;;;;;;;3.65;2.50;;;14.90;81.60;;;;;;5052681;28;20025;-81
2021/10/18 07:47:45;;;;;;;4.40;2.63;;;15.00;80.80;;;;;;5052449;28;20483;-78
2021/10/18 07:50:12;;;;;;;3.17;2.80;;;15.20;80.80;;;;;;5052591;28;20021;-83
2021/10/18 07:52:40;;;;;;;4.03;3.10;;;15.30;80.80;;;;;;5053718;28;20426;-80
2021/10/18 07:55:15;;;;;;;3.40;2.53;;;15.50;79.10;;;;;;5056718;28;20033;-85
2021/10/18 07:57:43;;;;;;;4.50;2.55;;;15.60;77.90;;;;;;5056814;28;20080;-85
2021/10/18 08:00:11;;;;;;;4.75;2.55;;;15.80;79.60;;;;;;5056504;28;20125;-84
2021/10/18 08:02:36;;;;;;;3.38;2.95;;;15.80;78.10;;;;;;5039048;28;20075;-89
2021/10/18 08:05:02;;;;;;;5.47;3.03;;;16.00;79.70;;;;;;5039646;28;20033;-81
2021/10/18 08:07:31;;;;;;;3.22;2.90;;;16.10;80.40;;;;;;5057418;28;20086;-84
2021/10/18 08:09:58;;;;;;;6.20;3.58;;;16.20;79.50;;;;;;5056666;28;20388;-90
2021/10/18 08:12:24;;;;;;;10.93;4.03;;;16.20;77.60;;;;;;5056997;28;20028;-86
2021/10/18 08:14:50;;;;;;;11.38;3.60;;;16.40;74.40;;;;;;5056450;28;20434;-80
2021/10/18 08:17:15;;;;;;;8.02;4.30;;;16.50;74.30;;;;;;5056232;28;20100;-89
2021/10/18 08:19:41;;;;;;;8.15;4.53;;;16.50;74.80;;;;;;5039312;28;20063;-83
2021/10/18 08:22:07;;;;;;;7.35;3.90;;;16.70;74.30;;;;;;5055921;28;20009;-78
2021/10/18 08:24:32;;;;;;;12.02;4.07;;;16.70;72.90;;;;;;5038630;28;20078;-81
2021/10/18 08:26:58;;;;;;;8.05;3.80;;;16.80;72.60;;;;;;5056270;28;20024;-85
2021/10/18 08:29:24;;;;;;;8.52;4.03;;;17.00;73.90;;;;;;5055862;28;20025;-82
2021/10/18 08:31:49;;;;;;;9.32;3.83;;;17.10;72.10;;;;;;5056084;28;20025;-82
2021/10/18 08:34:15;;;;;;;6.45;3.13;;;17.20;72.30;;;;;;5056921;28;20482;-83
2021/10/18 08:36:41;;;;;;;6.30;3.65;;;17.30;71.20;;;;;;5058431;28;20382;-88
2021/10/18 08:41:50;;;;;;;5.78;3.85;;;17.00;71.50;;;;;;5055827;28;20510;-77
2021/10/18 08:44:16;;;;;;;5.10;3.03;;;16.60;71.30;;;;;;5038085;28;20029;-84
2021/10/18 08:46:52;;;;;;;4.18;3.35;;;16.40;72.20;;;;;;5056055;28;20034;-84
2021/10/18 08:49:19;;;;;;;4.07;3.33;;;16.50;71.20;;;;;;5038452;28;20119;-84
2021/10/18 08:51:46;;;;;;;4.75;3.53;;;16.80;72.20;;;;;;5037802;28;20036;-84
2021/10/18 08:54:12;;;;;;;6.03;3.00;;;17.10;73.80;;;;;;5055660;28;20099;-84
2021/10/18 08:56:38;;;;;;;2.88;2.45;;;17.40;71.30;;;;;;5055680;28;20029;-85
2021/10/18 08:59:04;;;;;;;4.75;2.78;;;17.60;68.30;;;;;;5054940;28;20045;-84
2021/10/18 09:01:49;;;;;;;2.78;2.45;;;17.70;68.20;;;;;;5055116;28;20048;-83
2021/10/18 09:04:25;;;;;;;7.07;2.95;;;17.90;67.10;;;;;;5058359;28;20029;-92
2021/10/18 09:06:52;;;;;;;4.70;2.97;;;17.80;66.30;;;;;;5038773;28;20025;-82
2021/10/18 09:09:28;;;;;;;3.65;3.00;;;17.70;67.00;;;;;;5057139;28;20017;-87
2021/10/18 09:11:59;;;;;;;4.65;2.88;;;17.60;68.10;;;;;;5057882;28;20124;-88
2021/10/18 09:14:25;;;;;;;13.60;4.70;;;17.70;69.10;;;;;;5037960;28;20032;-88
2021/10/18 09:16:52;;;;;;;11.60;5.03;;;17.80;72.20;;;;;;5055736;28;20055;-87
2021/10/18 09:19:24;;;;;;;20.08;4.93;;;17.70;71.50;;;;;;5055571;28;20032;-82
2021/10/18 09:21:59;;;;;;;6.43;4.20;;;17.40;73.00;;;;;;5055047;28;20022;-85
2021/10/18 09:24:34;;;;;;;13.13;5.15;;;17.20;75.30;;;;;;5054770;28;20044;-82
2021/10/18 09:27:03;;;;;;;12.20;4.00;;;17.10;75.70;;;;;;5056804;28;20025;-83
2021/10/18 09:29:45;;;;;;;11.52;4.40;;;17.10;74.60;;;;;;5055843;28;20108;-87
2021/10/18 09:32:18;;;;;;;15.75;4.82;;;17.20;74.10;;;;;;5056412;28;20555;-88
2021/10/18 09:34:43;;;;;;;20.52;5.00;;;17.20;74.40;;;;;;5054973;28;20032;-85
2021/10/18 09:37:12;;;;;;;17.88;4.35;;;17.20;75.10;;;;;;5055126;28;20375;-81
2021/10/18 09:39:42;;;;;;;12.82;4.30;;;17.10;74.40;;;;;;5054497;28;20055;-85
2021/10/18 09:42:13;;;;;;;27.35;5.13;;;17.30;74.00;;;;;;5054905;28;20017;-83
2021/10/18 10:52:40;;;;;;;3.65;2.85;;;17.10;81.60;;;;;;5052943;28;20083;-82
2021/10/18 10:55:31;;;;;;;4.53;3.28;;;17.20;82.00;;;;;;5052938;28;20028;-80
2021/10/18 10:57:59;;;;;;;4.72;3.05;;;17.30;81.30;;;;;;5056872;28;20032;-80
2021/10/18 11:00:42;;;;;;;4.72;3.03;;;17.10;82.60;;;;;;5035243;28;20036;-82
2021/10/18 11:03:30;;;;;;;3.28;2.90;;;17.10;83.20;;;;;;5034899;28;20044;-81
2021/10/18 11:06:04;;;;;;;4.93;3.20;;;16.80;84.60;;;;;;5053288;28;20021;-80
2021/10/18 11:08:37;;;;;;;4.95;3.05;;;16.70;86.40;;;;;;5052916;28;20022;-79
2021/10/18 11:11:12;;;;;;;3.28;2.95;;;16.70;86.50;;;;;;5052998;28;20071;-78
2021/10/18 11:13:56;;;;;;;3.15;2.70;;;17.00;87.30;;;;;;5052824;28;20024;-79
2021/10/18 11:16:24;;;;;;;3.20;2.60;;;17.30;85.90;;;;;;5034938;28;20033;-82
2021/10/18 11:18:55;;;;;;;4.68;2.88;;;17.70;84.10;;;;;;5052649;28;20032;-83
2021/10/18 11:21:25;;;;;;;3.97;2.72;;;18.00;83.20;;;;;;5052795;28;20029;-82
2021/10/18 11:24:09;;;;;;;3.40;2.67;;;18.00;82.50;;;;;;5052571;28;20044;-79
2021/10/18 11:26:38;;;;;;;4.80;3.15;;;18.00;82.60;;;;;;5052756;28;20045;-78
2021/10/18 11:29:09;;;;;;;4.72;2.92;;;18.00;85.00;;;;;;5056145;28;20108;-78
2021/10/18 11:31:43;;;;;;;4.18;2.95;;;17.80;86.00;;;;;;5056396;28;20017;-80
2021/10/18 11:34:19;;;;;;;4.93;2.67;;;17.70;87.10;;;;;;5056377;28;20499;-79
2021/10/18 11:36:50;;;;;;;3.95;3.10;;;17.80;88.30;;;;;;5054383;28;20052;-78
2021/10/18 11:39:23;;;;;;;7.78;2.85;;;18.00;85.00;;;;;;5038326;28;20050;-79
2021/10/18 11:42:09;;;;;;;6.07;3.20;;;18.20;85.60;;;;;;5056107;28;20146;-79
2021/10/18 11:44:49;;;;;;;4.75;3.22;;;18.80;82.20;;;;;;5037986;28;20060;-79
2021/10/18 11:47:24;;;;;;;3.30;2.85;;;18.80;81.10;;;;;;5038444;28;20028;-79
2021/10/18 11:50:15;;;;;;;5.18;3.42;;;18.60;82.80;;;;;;5038205;28;20123;-77
2021/10/18 11:52:52;;;;;;;7.40;3.80;;;18.70;83.70;;;;;;5056224;28;20509;-78
2021/10/18 11:55:37;;;;;;;4.13;3.47;;;18.70;81.40;;;;;;5055948;28;20051;-77
2021/10/18 11:58:06;;;;;;;6.80;3.72;;;18.40;80.60;;;;;;5055933;28;20021;-77
2021/10/18 12:00:43;;;;;;;5.82;3.40;;;18.30;81.60;;;;;;5056041;28;20029;-77
2021/10/18 12:03:17;;;;;;;5.70;3.28;;;18.50;80.00;;;;;;5055884;28;20060;-76
2021/10/18 12:05:51;;;;;;;4.30;3.20;;;21.20;73.20;;;;;;5055852;28;20032;-77
2021/10/18 12:08:19;;;;;;;8.43;3.17;;;24.50;65.10;;;;;;5056275;28;20104;-79
2021/10/18 12:10:49;;;;;;;5.47;3.40;;;26.40;57.60;;;;;;5055918;28;20036;-80
2021/10/18 12:13:21;;;;;;;5.60;3.67;;;27.70;54.00;;;;;;5037793;28;20025;-79
2021/10/18 12:15:53;;;;;;;4.50;3.70;;;28.70;51.20;;;;;;5055818;28;20043;-79
2021/10/18 12:18:28;;;;;;;3.38;3.08;;;28.50;49.10;;;;;;5055896;28;20387;-79
2021/10/18 12:20:56;;;;;;;5.82;3.30;;;28.30;51.60;;;;;;5038043;28;20033;-80
2021/10/18 12:23:27;;;;;;;5.05;3.92;;;29.10;49.30;;;;;;5037612;28;20056;-79
2021/10/18 12:25:55;;;;;;;5.03;3.35;;;28.70;49.50;;;;;;5055610;28;20067;-80
2021/10/18 12:28:39;;;;;;;5.25;4.03;;;28.00;48.80;;;;;;5037752;28;20076;-83
2021/10/18 12:31:06;;;;;;;7.30;3.60;;;28.10;50.90;;;;;;5055637;28;20060;-83
2021/10/18 12:33:40;;;;;;;4.00;3.60;;;28.30;50.80;;;;;;5055497;28;20040;-80
2021/10/18 12:36:07;;;;;;;6.35;3.28;;;28.60;48.10;;;;;;5037465;28;20023;-80
2021/10/18 12:38:39;;;;;;;5.13;3.10;;;29.20;48.30;;;;;;5054800;28;20454;-81
2021/10/18 12:41:13;;;;;;;3.67;3.25;;;29.00;47.70;;;;;;5055221;28;20057;-78
2021/10/18 12:43:39;;;;;;;8.52;3.00;;;28.40;48.20;;;;;;5055128;28;20413;-79
2021/10/18 12:46:20;;;;;;;3.97;2.97;;;28.40;48.00;;;;;;5055204;28;20100;-79
2021/10/18 12:49:00;;;;;;;3.17;2.80;;;29.00;46.60;;;;;;5037241;28;20112;-80
2021/10/18 12:51:47;;;;;;;5.85;3.20;;;28.80;47.00;;;;;;5055203;28;20387;-81
2021/10/18 12:54:21;;;;;;;3.60;3.00;;;29.80;47.40;;;;;;5055014;28;20091;-80
2021/10/18 12:57:13;;;;;;;4.57;3.17;;;30.40;46.00;;;;;;5054982;28;20020;-79
2021/10/18 13:00:04;;;;;;;5.57;3.33;;;30.30;45.80;;;;;;5054772;28;20491;-78
2021/10/18 13:02:32;;;;;;;4.75;2.88;;;29.70;45.20;;;;;;5054978;28;20017;-80
2021/10/18 13:05:24;;;;;;;4.40;2.78;;;30.10;46.10;;;;;;5054767;28;20025;-81
2021/10/18 13:07:53;;;;;;;;;;;30.90;45.40;;;;;;5055274;28;20475;-79
2021/10/18 13:10:21;;;;;;;4.05;2.78;;;31.80;45.30;;;;;;5054891;28;19905;-80
2021/10/18 13:12:47;;;;;;;7.90;2.60;;;32.70;44.00;;;;;;5054844;28;20017;-80
2021/10/18 13:15:15;;;;;;;3.65;2.55;;;33.00;43.40;;;;;;5054502;28;20373;-80
2021/10/18 13:17:42;;;;;;;3.70;2.47;;;33.40;43.50;;;;;;5036703;28;20025;-80
2021/10/18 13:20:08;;;;;;;3.47;2.35;;;33.90;41.70;;;;;;5053311;28;20414;-79
2021/10/18 13:22:34;;;;;;;4.97;2.63;;;33.40;42.00;;;;;;5054518;28;20063;-80
2021/10/18 13:25:00;;;;;;;6.00;2.70;;;32.50;43.50;;;;;;5054585;28;20601;-79
2021/10/18 13:27:26;;;;;;;5.20;3.03;;;32.60;44.50;;;;;;5054622;28;20026;-81
2021/10/18 13:29:52;;;;;;;3.10;2.83;;;31.80;44.50;;;;;;5036387;28;20048;-79
2021/10/18 13:32:17;;;;;;;6.30;3.08;;;31.50;44.90;;;;;;5054242;28;20032;-81
2021/10/18 13:34:44;;;;;;;4.65;3.20;;;31.30;46.00;;;;;;5054273;28;20538;-78
2021/10/18 13:37:11;;;;;;;5.45;3.22;;;31.10;46.70;;;;;;5054605;28;20017;-79
2021/10/18 13:39:41;;;;;;;8.40;3.30;;;31.10;47.00;;;;;;5054259;28;20017;-80
2021/10/18 13:42:07;;;;;;;7.28;2.72;;;31.00;47.60;;;;;;5055462;28;20021;-81
2021/10/18 13:44:34;;;;;;;6.05;3.78;;;31.90;46.20;;;;;;5036767;28;20404;-79
2021/10/18 13:47:00;;;;;;;5.60;3.15;;;32.00;45.50;;;;;;5054178;28;20107;-79
2021/10/18 13:49:27;;;;;;;6.05;4.20;;;31.30;46.80;;;;;;5053880;28;20380;-80
2021/10/18 13:51:53;;;;;;;5.55;3.08;;;31.90;46.70;;;;;;5053975;28;20043;-78
2021/10/18 13:54:18;;;;;;;4.57;2.88;;;32.70;45.70;;;;;;5053897;28;20467;-77
2021/10/18 13:56:44;;;;;;;3.58;2.42;;;33.40;44.30;;;;;;5053860;28;20017;-79
2021/10/18 13:59:11;;;;;;;3.17;2.50;;;33.30;44.70;;;;;;5053679;28;20533;-79
2021/10/18 14:01:37;;;;;;;9.57;2.80;;;32.70;45.00;;;;;;5035893;28;20029;-79